Time;durP1;ratioP1;P1;durP2;ratioP2;P2;SDS_P1;SDS_P2;PMS_P1;PMS_P2;Temp;Humidity;BMP_temperature;BMP_pressure;BME280_temperature;BME280_humidity;BME280_pressure;Samples;Min_cycle;Max_cycle;Signal;HPM_P1;HPM_P2
2021/03/29 00:00:21;;;;;;;13.50;3.70;;;10.70;99.90;;;;;;4975914;28;20195;-83
2021/03/29 00:02:49;;;;;;;5.72;3.10;;;10.80;99.90;;;;;;4976323;28;20190;-84
2021/03/29 00:05:16;;;;;;;9.25;4.00;;;10.90;99.90;;;;;;4976616;28;20543;-84
2021/03/29 00:07:46;;;;;;;11.77;3.35;;;10.90;99.90;;;;;;4976019;28;20678;-84
2021/03/29 00:10:13;;;;;;;8.57;3.75;;;10.90;99.90;;;;;;4976639;28;20187;-84
2021/03/29 00:12:43;;;;;;;7.97;3.78;;;11.00;99.90;;;;;;4977428;28;20221;-84
2021/03/29 00:15:15;;;;;;;6.95;3.22;;;11.00;99.90;;;;;;4979085;28;20558;-84
2021/03/29 00:17:41;;;;;;;7.28;3.97;;;11.10;99.90;;;;;;4998032;28;20183;-84
2021/03/29 00:20:11;;;;;;;7.85;3.35;;;11.10;99.90;;;;;;4998745;28;20247;-84
2021/03/29 00:22:39;;;;;;;13.38;3.67;;;11.10;99.90;;;;;;4977538;28;20277;-84
2021/03/29 00:25:06;;;;;;;8.27;3.00;;;11.10;99.90;;;;;;4976063;28;20194;-84
2021/03/29 00:27:33;;;;;;;10.60;4.18;;;11.10;99.90;;;;;;4975881;28;20209;-84
2021/03/29 00:30:00;;;;;;;13.23;4.22;;;11.00;99.90;;;;;;4976466;28;20516;-84
2021/03/29 00:32:27;;;;;;;8.95;4.50;;;11.10;99.90;;;;;;4976005;28;20187;-84
2021/03/29 00:34:55;;;;;;;10.45;3.90;;;11.00;99.90;;;;;;4975958;28;20238;-85
2021/03/29 00:37:24;;;;;;;8.52;2.97;;;11.00;99.90;;;;;;4980201;28;20306;-85
2021/03/29 00:39:51;;;;;;;12.13;3.63;;;10.90;99.90;;;;;;4977979;28;20206;-84
2021/03/29 00:42:18;;;;;;;12.07;4.32;;;10.90;99.90;;;;;;4977287;28;20221;-84
2021/03/29 00:44:44;;;;;;;6.55;4.28;;;10.90;99.90;;;;;;4976591;28;20570;-84
2021/03/29 00:47:11;;;;;;;5.53;2.97;;;10.90;99.90;;;;;;4976116;28;20186;-84
2021/03/29 00:49:39;;;;;;;7.07;3.75;;;10.90;99.90;;;;;;4979921;28;20188;-84
2021/03/29 00:52:07;;;;;;;13.38;4.68;;;11.00;99.90;;;;;;4979091;28;20194;-84
2021/03/29 00:54:36;;;;;;;7.15;3.45;;;11.00;99.90;;;;;;4977380;28;20198;-83
2021/03/29 00:57:03;;;;;;;11.70;5.13;;;11.10;99.90;;;;;;4959186;28;20231;-84
2021/03/29 00:59:30;;;;;;;9.75;4.03;;;11.10;99.90;;;;;;4967454;28;20280;-83
2021/03/29 01:01:57;;;;;;;10.95;4.45;;;11.10;99.90;;;;;;4958669;28;20302;-84
2021/03/29 01:04:24;;;;;;;6.28;3.25;;;11.00;99.90;;;;;;4974024;28;20187;-83
2021/03/29 01:06:52;;;;;;;5.40;3.15;;;11.00;99.90;;;;;;4982558;28;20257;-83
2021/03/29 01:09:22;;;;;;;7.72;3.95;;;11.00;99.90;;;;;;4986200;28;20201;-84
2021/03/29 01:11:52;;;;;;;14.43;4.43;;;11.00;99.90;;;;;;4991160;28;20202;-83
2021/03/29 01:14:22;;;;;;;8.38;3.83;;;11.00;99.90;;;;;;4983629;28;20205;-84
2021/03/29 01:16:52;;;;;;;11.88;4.65;;;11.00;99.90;;;;;;4991632;28;20186;-83
2021/03/29 01:19:34;;;;;;;8.35;4.10;;;10.90;99.90;;;;;;4995422;28;20193;-85
2021/03/29 01:22:07;;;;;;;9.15;3.25;;;11.00;99.90;;;;;;4995910;28;20222;-83
2021/03/29 01:24:47;;;;;;;8.52;4.53;;;10.90;99.90;;;;;;4987718;28;20190;-84
2021/03/29 01:27:19;;;;;;;7.22;3.78;;;10.90;99.90;;;;;;4986030;28;20285;-84
2021/03/29 01:29:47;;;;;;;11.48;4.50;;;10.90;99.90;;;;;;4989277;28;20191;-84
2021/03/29 01:32:14;;;;;;;9.07;4.65;;;10.90;99.90;;;;;;4988575;28;20187;-85
2021/03/29 01:34:41;;;;;;;8.75;4.30;;;10.90;99.90;;;;;;4989899;28;20197;-85
2021/03/29 01:37:10;;;;;;;9.35;4.00;;;10.90;99.90;;;;;;4990290;28;20242;-84
2021/03/29 01:39:37;;;;;;;8.80;4.63;;;10.80;99.90;;;;;;4986962;28;20190;-83
2021/03/29 01:42:05;;;;;;;10.98;4.20;;;10.90;99.90;;;;;;4976455;28;20211;-84
2021/03/29 01:44:33;;;;;;;10.77;5.95;;;10.90;99.90;;;;;;4975489;28;20190;-84
2021/03/29 01:46:59;;;;;;;6.00;3.65;;;10.90;99.90;;;;;;4975391;28;20256;-84
2021/03/29 01:49:26;;;;;;;7.43;3.42;;;10.80;99.90;;;;;;4974453;28;20193;-84
2021/03/29 01:51:54;;;;;;;16.48;5.57;;;10.80;99.90;;;;;;4974613;28;20187;-84
2021/03/29 01:54:21;;;;;;;7.60;3.78;;;10.80;99.90;;;;;;4974554;28;20524;-84
2021/03/29 01:56:47;;;;;;;5.63;3.17;;;10.80;99.90;;;;;;4974555;28;20229;-84
2021/03/29 01:59:14;;;;;;;7.05;3.45;;;10.80;99.90;;;;;;4973903;28;20195;-84
2021/03/29 02:01:41;;;;;;;13.38;4.43;;;10.90;99.90;;;;;;4974904;28;20226;-84
2021/03/29 02:04:08;;;;;;;8.90;3.90;;;10.80;99.90;;;;;;4974187;28;20269;-84
2021/03/29 02:06:36;;;;;;;8.27;3.63;;;10.90;99.90;;;;;;4974331;28;20194;-83
2021/03/29 02:09:05;;;;;;;8.77;3.83;;;10.90;99.90;;;;;;4974008;28;20274;-84
2021/03/29 02:11:32;;;;;;;14.43;5.60;;;10.90;99.90;;;;;;4974586;28;20194;-84
2021/03/29 02:14:00;;;;;;;10.25;4.18;;;10.90;99.90;;;;;;4974208;28;20202;-83
2021/03/29 02:16:29;;;;;;;8.57;4.85;;;10.90;99.90;;;;;;4974676;28;20195;-84
2021/03/29 02:18:58;;;;;;;6.38;5.18;;;10.90;99.90;;;;;;4974754;28;20186;-84
2021/03/29 02:21:26;;;;;;;10.00;4.05;;;10.90;99.90;;;;;;4974230;28;20218;-83
2021/03/29 02:23:56;;;;;;;8.32;4.90;;;10.80;99.90;;;;;;4974185;28;20190;-83
2021/03/29 02:26:23;;;;;;;7.70;4.00;;;10.80;99.90;;;;;;4974750;28;20763;-84
2021/03/29 02:28:50;;;;;;;14.57;5.38;;;10.80;99.90;;;;;;4974433;28;20195;-84
2021/03/29 02:31:18;;;;;;;6.65;4.78;;;10.90;99.90;;;;;;4973344;28;20241;-84
2021/03/29 02:33:47;;;;;;;11.52;4.53;;;10.80;99.90;;;;;;4974220;28;20187;-83
2021/03/29 02:36:17;;;;;;;9.07;3.45;;;10.80;99.90;;;;;;4973883;28;20623;-84
2021/03/29 02:38:43;;;;;;;9.95;4.10;;;10.90;99.90;;;;;;4974150;28;20241;-83
2021/03/29 02:41:10;;;;;;;9.15;3.92;;;11.00;99.90;;;;;;4973717;28;20214;-83
2021/03/29 02:43:37;;;;;;;6.20;3.75;;;10.90;99.90;;;;;;4974103;28;20187;-84
2021/03/29 02:46:06;;;;;;;7.07;3.17;;;10.90;99.90;;;;;;4973977;28;20549;-84
2021/03/29 02:48:36;;;;;;;8.70;3.92;;;10.90;99.90;;;;;;4973616;28;20179;-85
2021/03/29 02:51:05;;;;;;;8.63;3.78;;;10.80;99.90;;;;;;4974261;28;20199;-84
2021/03/29 02:53:34;;;;;;;9.43;3.53;;;10.90;99.90;;;;;;4973477;28;20202;-84
2021/03/29 02:56:05;;;;;;;8.85;3.63;;;10.90;99.90;;;;;;4973823;28;20682;-84
2021/03/29 02:58:34;;;;;;;7.38;3.38;;;11.00;99.90;;;;;;4973671;28;20187;-84
2021/03/29 03:01:01;;;;;;;6.43;3.65;;;10.90;99.90;;;;;;4973702;28;20207;-84
2021/03/29 03:03:28;;;;;;;9.05;4.25;;;10.90;99.90;;;;;;4973514;28;20202;-85
2021/03/29 03:05:55;;;;;;;7.20;3.25;;;10.90;99.90;;;;;;4973833;28;20674;-84
2021/03/29 03:08:22;;;;;;;7.47;3.03;;;10.80;99.90;;;;;;4973314;28;20198;-84
2021/03/29 03:10:50;;;;;;;7.60;4.00;;;10.80;99.90;;;;;;4976365;28;20187;-83
2021/03/29 03:13:17;;;;;;;6.30;3.05;;;10.80;99.90;;;;;;4977591;28;20586;-84
2021/03/29 03:15:44;;;;;;;7.50;4.30;;;10.80;99.90;;;;;;4977118;28;20665;-85
2021/03/29 03:18:11;;;;;;;6.55;2.97;;;10.70;99.90;;;;;;4978337;28;20197;-84
2021/03/29 03:20:39;;;;;;;10.38;4.28;;;10.70;99.90;;;;;;4977886;28;20183;-84
2021/03/29 03:23:13;;;;;;;6.80;3.28;;;10.70;99.90;;;;;;4978854;28;20201;-84
2021/03/29 03:25:42;;;;;;;7.78;3.20;;;10.70;99.90;;;;;;4996420;28;20191;-84
2021/03/29 03:28:12;;;;;;;5.97;3.38;;;10.80;99.90;;;;;;5001915;28;20193;-83
2021/03/29 03:30:40;;;;;;;10.40;3.42;;;10.80;99.90;;;;;;4977450;28;20183;-84
2021/03/29 03:33:09;;;;;;;6.15;2.97;;;10.80;99.90;;;;;;4977387;28;20195;-84
2021/03/29 03:35:36;;;;;;;8.88;3.70;;;10.80;99.90;;;;;;4977807;28;20507;-84
2021/03/29 03:38:08;;;;;;;5.93;2.97;;;10.80;99.90;;;;;;4979313;28;20187;-84
2021/03/29 03:40:36;;;;;;;9.00;3.88;;;10.80;99.90;;;;;;4981209;28;20183;-84
2021/03/29 03:43:05;;;;;;;4.75;2.80;;;10.90;99.90;;;;;;4982756;28;20193;-84
2021/03/29 03:45:35;;;;;;;6.25;3.17;;;10.90;99.90;;;;;;4980950;28;20218;-84
2021/03/29 03:48:02;;;;;;;6.43;3.35;;;10.90;99.90;;;;;;4980360;28;20187;-84
2021/03/29 03:50:29;;;;;;;5.55;3.35;;;10.80;99.90;;;;;;4978536;28;20202;-84
2021/03/29 03:52:56;;;;;;;9.23;3.00;;;10.80;99.90;;;;;;4982775;28;20201;-85
2021/03/29 03:55:24;;;;;;;8.25;2.88;;;10.90;99.90;;;;;;4986841;28;20516;-83
2021/03/29 03:57:51;;;;;;;7.05;3.45;;;10.80;99.90;;;;;;4991337;28;20247;-83
2021/03/29 04:00:19;;;;;;;7.40;3.17;;;10.90;99.90;;;;;;4991242;28;20215;-84
2021/03/29 04:02:49;;;;;;;6.30;3.10;;;10.80;99.90;;;;;;4991749;28;20218;-84
2021/03/29 04:05:17;;;;;;;6.25;3.33;;;10.70;99.90;;;;;;4991243;28;20198;-84
2021/03/29 04:07:44;;;;;;;6.25;3.20;;;10.60;99.90;;;;;;4991236;28;20186;-84
2021/03/29 04:10:15;;;;;;;7.18;3.53;;;10.50;99.90;;;;;;4990443;28;20261;-84
2021/03/29 04:12:43;;;;;;;5.50;3.55;;;10.50;99.90;;;;;;4968757;28;20678;-83
2021/03/29 04:15:11;;;;;;;5.60;2.70;;;10.50;99.90;;;;;;4981949;28;20198;-84
2021/03/29 04:17:37;;;;;;;9.13;3.95;;;10.50;99.90;;;;;;4988196;28;20186;-84
2021/03/29 04:20:06;;;;;;;6.22;3.45;;;10.60;99.90;;;;;;4987986;28;20183;-84
2021/03/29 04:22:33;;;;;;;12.82;3.47;;;10.50;99.90;;;;;;4987379;28;20217;-84
2021/03/29 04:24:59;;;;;;;8.95;3.22;;;10.50;99.90;;;;;;4981893;28;20246;-84
2021/03/29 04:27:25;;;;;;;8.95;2.90;;;10.50;99.90;;;;;;4981475;28;20191;-83
2021/03/29 04:29:52;;;;;;;9.48;3.45;;;10.50;99.90;;;;;;4981645;28;20194;-83
2021/03/29 04:32:18;;;;;;;11.25;3.75;;;10.50;99.90;;;;;;4981913;28;20272;-83
2021/03/29 04:34:44;;;;;;;7.53;3.35;;;10.50;99.90;;;;;;4980935;28;20187;-82
2021/03/29 04:37:11;;;;;;;8.48;3.95;;;10.60;99.90;;;;;;4980330;28;20193;-82
2021/03/29 04:39:38;;;;;;;11.20;3.20;;;10.50;99.90;;;;;;4981006;28;20191;-82
2021/03/29 04:42:05;;;;;;;8.05;2.80;;;10.50;99.90;;;;;;4979805;28;20211;-82
2021/03/29 04:44:31;;;;;;;4.57;2.80;;;10.50;99.90;;;;;;4979951;28;20195;-83
2021/03/29 04:46:57;;;;;;;7.07;2.83;;;10.50;99.90;;;;;;4979901;28;20640;-82
2021/03/29 04:49:24;;;;;;;7.57;3.30;;;10.40;99.90;;;;;;4980261;28;20187;-83
2021/03/29 04:51:50;;;;;;;8.48;2.95;;;10.40;99.90;;;;;;4979267;28;20237;-83
2021/03/29 04:54:19;;;;;;;8.93;4.47;;;10.40;99.90;;;;;;4979680;28;20187;-83
2021/03/29 04:56:45;;;;;;;11.30;3.75;;;10.40;99.90;;;;;;4981828;28;20257;-83
2021/03/29 04:59:11;;;;;;;6.72;2.72;;;10.50;99.90;;;;;;4981529;28;20245;-83
2021/03/29 05:01:37;;;;;;;7.32;2.92;;;10.40;99.90;;;;;;4981920;28;20218;-83
2021/03/29 05:04:04;;;;;;;4.13;3.10;;;10.40;99.90;;;;;;4982272;28;20197;-84
2021/03/29 05:06:31;;;;;;;9.20;3.63;;;10.50;99.90;;;;;;4981002;28;20197;-83
2021/03/29 05:08:57;;;;;;;10.45;3.08;;;10.40;99.90;;;;;;4978684;28;20193;-83
2021/03/29 05:11:25;;;;;;;9.25;3.30;;;10.50;99.90;;;;;;4979836;28;20191;-83
2021/03/29 05:13:51;;;;;;;11.07;2.72;;;10.40;99.90;;;;;;4981017;28;20190;-83
2021/03/29 05:16:17;;;;;;;6.38;3.00;;;10.50;99.90;;;;;;4981378;28;20274;-84
2021/03/29 05:18:44;;;;;;;8.90;3.65;;;10.40;99.90;;;;;;4982303;28;20203;-85
2021/03/29 05:21:10;;;;;;;7.75;2.78;;;10.40;99.90;;;;;;4980745;28;20685;-82
2021/03/29 05:23:36;;;;;;;11.55;3.65;;;10.40;99.90;;;;;;4980837;28;20254;-83
2021/03/29 05:26:02;;;;;;;12.95;4.05;;;10.40;99.90;;;;;;4982361;28;20190;-84
2021/03/29 05:28:30;;;;;;;22.55;5.25;;;10.50;99.90;;;;;;4985531;28;20228;-83
2021/03/29 05:30:56;;;;;;;6.40;3.50;;;10.40;99.90;;;;;;4985072;28;20590;-83
2021/03/29 05:33:22;;;;;;;7.75;3.03;;;10.40;99.90;;;;;;4984195;28;20190;-83
2021/03/29 05:35:48;;;;;;;7.22;2.90;;;10.50;99.90;;;;;;4983811;28;20198;-83
2021/03/29 05:38:15;;;;;;;5.18;3.25;;;10.50;99.90;;;;;;4983347;28;20195;-85
2021/03/29 05:40:41;;;;;;;4.50;2.80;;;10.50;99.90;;;;;;4987033;28;20281;-83
2021/03/29 05:43:08;;;;;;;5.95;3.50;;;10.50;99.90;;;;;;4977099;28;20197;-85
2021/03/29 05:45:36;;;;;;;6.45;2.83;;;10.50;99.90;;;;;;4976973;28;20223;-82
2021/03/29 05:48:02;;;;;;;10.07;3.05;;;10.50;99.90;;;;;;4974709;28;20249;-86
2021/03/29 05:50:29;;;;;;;16.33;4.00;;;10.50;99.90;;;;;;4992521;28;20183;-85
2021/03/29 05:52:56;;;;;;;5.53;3.30;;;10.40;99.90;;;;;;4991819;28;20203;-85
2021/03/29 05:55:27;;;;;;;8.15;3.45;;;10.40;99.90;;;;;;4979032;28;20192;-85
2021/03/29 05:58:08;;;;;;;5.70;2.80;;;10.40;99.90;;;;;;4997237;28;20193;-85
2021/03/29 06:00:39;;;;;;;10.18;3.38;;;10.50;99.90;;;;;;4997742;28;20174;-87
2021/03/29 06:03:23;;;;;;;6.32;3.30;;;10.50;99.90;;;;;;4997560;28;20202;-87
2021/03/29 06:05:52;;;;;;;5.55;3.13;;;10.50;99.90;;;;;;4995788;28;20195;-84
2021/03/29 06:08:19;;;;;;;6.40;3.63;;;10.50;99.90;;;;;;4993014;28;20195;-85
2021/03/29 06:10:46;;;;;;;7.80;2.97;;;10.50;99.90;;;;;;4997004;28;20186;-88
2021/03/29 06:13:18;;;;;;;10.60;3.20;;;10.60;99.90;;;;;;4993442;28;20179;-86
2021/03/29 06:15:47;;;;;;;8.98;3.15;;;10.60;99.90;;;;;;4998161;28;20179;-86
2021/03/29 06:18:15;;;;;;;8.07;3.15;;;10.70;99.90;;;;;;4994760;28;20278;-84
2021/03/29 06:20:58;;;;;;;10.18;3.72;;;10.80;99.90;;;;;;4991479;28;20278;-85
2021/03/29 06:23:24;;;;;;;9.30;3.80;;;10.80;99.90;;;;;;4991341;28;20254;-85
2021/03/29 06:25:51;;;;;;;13.48;3.17;;;10.90;99.90;;;;;;4997790;28;20214;-86
2021/03/29 06:28:24;;;;;;;4.57;3.38;;;11.00;99.90;;;;;;4993269;28;20247;-87
2021/03/29 06:30:51;;;;;;;10.07;2.80;;;11.00;99.90;;;;;;4996723;28;20213;-86
2021/03/29 06:33:18;;;;;;;5.75;2.60;;;11.00;99.90;;;;;;4997575;28;20238;-86
2021/03/29 06:35:46;;;;;;;6.15;2.33;;;11.10;99.90;;;;;;4996408;28;20187;-84
2021/03/29 06:38:15;;;;;;;11.20;4.93;;;11.10;99.90;;;;;;4993854;28;20250;-86
2021/03/29 06:40:45;;;;;;;10.68;3.20;;;11.20;99.90;;;;;;4996441;28;20218;-84
2021/03/29 06:43:23;;;;;;;5.90;2.80;;;11.20;99.90;;;;;;4980884;28;20183;-84
2021/03/29 06:45:51;;;;;;;9.73;3.80;;;11.30;99.90;;;;;;4981880;28;20196;-84
2021/03/29 06:48:21;;;;;;;5.43;2.63;;;11.30;99.90;;;;;;4977753;28;20228;-87
2021/03/29 06:50:47;;;;;;;12.02;3.85;;;11.40;99.90;;;;;;4974283;28;20226;-85
2021/03/29 06:53:25;;;;;;;9.75;3.13;;;11.40;99.90;;;;;;4988397;28;20191;-84
2021/03/29 06:55:56;;;;;;;7.23;4.00;;;11.50;99.90;;;;;;4969587;28;574908;-85
2021/03/29 06:58:25;;;;;;;10.40;3.35;;;11.50;99.90;;;;;;4970521;28;20525;-85
2021/03/29 07:00:56;;;;;;;7.93;2.67;;;11.50;99.90;;;;;;4972966;28;20206;-84
2021/03/29 07:03:23;;;;;;;4.15;2.83;;;11.50;99.90;;;;;;4989696;28;20191;-87
2021/03/29 07:05:50;;;;;;;5.68;3.15;;;11.60;99.90;;;;;;4988804;28;20190;-86
2021/03/29 07:08:17;;;;;;;6.38;3.50;;;11.60;99.90;;;;;;4988048;28;20221;-86
2021/03/29 07:10:43;;;;;;;5.85;3.50;;;11.70;99.90;;;;;;4983123;28;20698;-86
2021/03/29 07:13:11;;;;;;;3.72;2.30;;;11.80;99.90;;;;;;4989536;28;20191;-88
2021/03/29 07:15:38;;;;;;;7.60;4.53;;;11.80;99.90;;;;;;4987679;28;20187;-85
2021/03/29 07:18:06;;;;;;;7.38;3.17;;;11.80;99.90;;;;;;4988037;28;20286;-85
2021/03/29 07:20:33;;;;;;;8.68;3.08;;;11.90;99.90;;;;;;4982188;28;20191;-87
2021/03/29 07:22:59;;;;;;;9.85;4.10;;;12.00;99.90;;;;;;4988749;28;20222;-86
2021/03/29 07:25:30;;;;;;;4.90;2.35;;;12.10;99.90;;;;;;4994380;28;20190;-86
2021/03/29 07:27:59;;;;;;;7.75;2.90;;;12.10;99.90;;;;;;4996572;28;20190;-83
2021/03/29 07:30:44;;;;;;;11.02;3.50;;;12.20;99.90;;;;;;4987971;28;20663;-84
2021/03/29 07:33:13;;;;;;;9.40;2.83;;;12.20;99.90;;;;;;4969422;28;20199;-84
2021/03/29 07:35:49;;;;;;;4.50;2.92;;;12.30;99.90;;;;;;4969564;28;20192;-87
2021/03/29 07:38:16;;;;;;;7.00;3.55;;;12.40;99.90;;;;;;4987082;28;20190;-85
2021/03/29 07:40:50;;;;;;;8.02;3.55;;;12.40;99.90;;;;;;4980809;28;20199;-86
2021/03/29 07:43:18;;;;;;;6.60;3.50;;;12.50;99.90;;;;;;4982527;28;20192;-86
2021/03/29 07:45:47;;;;;;;8.80;2.58;;;12.60;99.90;;;;;;4986777;28;20254;-85
2021/03/29 07:48:33;;;;;;;9.18;3.72;;;12.80;99.90;;;;;;4979425;28;20238;-84
2021/03/29 07:51:00;;;;;;;5.55;2.63;;;12.80;99.90;;;;;;4978737;28;20233;-88
2021/03/29 07:53:42;;;;;;;10.75;4.38;;;12.90;99.90;;;;;;4978206;28;20195;-88
2021/03/29 07:56:09;;;;;;;6.70;3.45;;;12.90;99.90;;;;;;4976005;28;20215;-87
2021/03/29 07:58:45;;;;;;;8.80;4.05;;;12.90;99.90;;;;;;4977291;28;20269;-86
2021/03/29 08:01:13;;;;;;;11.05;3.38;;;13.00;99.90;;;;;;4977580;28;20273;-87
2021/03/29 08:03:53;;;;;;;7.57;3.15;;;13.00;99.90;;;;;;4974526;28;20186;-88
2021/03/29 08:06:53;;;;;;;11.43;2.88;;;13.00;99.90;;;;;;4974828;28;20591;-87
2021/03/29 08:09:41;;;;;;;6.70;2.92;;;13.00;99.90;;;;;;4976415;28;20202;-87
2021/03/29 08:12:07;;;;;;;7.65;4.20;;;12.80;99.90;;;;;;4976183;28;20539;-87
2021/03/29 08:14:52;;;;;;;7.55;3.28;;;12.80;99.90;;;;;;4973880;28;20191;-86
2021/03/29 08:17:45;;;;;;;9.82;4.28;;;12.90;99.90;;;;;;4959805;28;20242;-87
2021/03/29 08:20:19;;;;;;;6.18;2.50;;;13.00;99.90;;;;;;4966729;28;20197;-89
2021/03/29 08:23:06;;;;;;;7.97;3.95;;;13.00;99.90;;;;;;4984811;28;20206;-85
2021/03/29 08:25:32;;;;;;;7.32;3.05;;;13.10;99.90;;;;;;4982889;28;20186;-86
2021/03/29 08:27:59;;;;;;;5.50;3.60;;;13.20;99.90;;;;;;4986595;28;20183;-87
2021/03/29 08:30:27;;;;;;;7.63;3.20;;;13.20;99.90;;;;;;4982946;28;20195;-86
2021/03/29 08:33:08;;;;;;;8.65;2.85;;;13.20;99.90;;;;;;4985172;28;20217;-86
2021/03/29 08:35:37;;;;;;;7.05;3.30;;;13.30;99.90;;;;;;4985759;28;20226;-87
2021/03/29 08:38:08;;;;;;;8.15;3.50;;;13.40;99.90;;;;;;4981449;28;20221;-86
2021/03/29 08:40:35;;;;;;;6.00;3.20;;;13.40;99.90;;;;;;4978806;28;20201;-86
2021/03/29 08:43:03;;;;;;;10.23;3.92;;;13.40;99.90;;;;;;4977855;28;20357;-85
2021/03/29 08:45:29;;;;;;;8.07;4.05;;;13.50;99.90;;;;;;4977583;28;20191;-85
2021/03/29 08:47:57;;;;;;;6.85;2.80;;;13.70;99.90;;;;;;4976268;28;20187;-87
2021/03/29 08:50:26;;;;;;;4.90;3.25;;;13.80;99.90;;;;;;4976794;28;20200;-86
2021/03/29 08:52:59;;;;;;;12.93;3.60;;;13.90;99.90;;;;;;4976355;28;20187;-85
2021/03/29 08:55:28;;;;;;;5.93;3.35;;;13.90;99.90;;;;;;4972326;28;20198;-87
2021/03/29 08:57:55;;;;;;;6.97;3.72;;;14.00;99.90;;;;;;4969722;28;20269;-88
2021/03/29 09:00:23;;;;;;;9.13;2.95;;;14.00;99.90;;;;;;4975809;28;20654;-82
2021/03/29 09:02:50;;;;;;;8.30;3.78;;;14.10;99.90;;;;;;4977173;28;20220;-82
2021/03/29 09:05:18;;;;;;;7.80;3.42;;;14.10;99.90;;;;;;4977090;28;20202;-81
2021/03/29 09:07:47;;;;;;;5.43;2.95;;;14.00;99.90;;;;;;4975144;28;20259;-82
2021/03/29 09:10:17;;;;;;;11.77;3.75;;;14.00;99.90;;;;;;4964646;28;20187;-81
2021/03/29 09:12:44;;;;;;;8.48;2.92;;;14.00;99.90;;;;;;4969674;28;20245;-81
2021/03/29 09:15:16;;;;;;;7.70;3.67;;;14.00;99.90;;;;;;4975818;28;20195;-82
2021/03/29 09:17:43;;;;;;;11.32;3.88;;;14.00;99.90;;;;;;4971913;28;20185;-82
2021/03/29 09:20:20;;;;;;;6.20;3.35;;;14.10;99.90;;;;;;4971367;28;20202;-83
2021/03/29 09:22:47;;;;;;;10.68;3.80;;;14.00;99.90;;;;;;4969290;28;20254;-82
2021/03/29 09:25:21;;;;;;;7.40;3.03;;;14.00;99.90;;;;;;4962549;28;20183;-84
2021/03/29 09:27:49;;;;;;;6.43;2.88;;;13.90;99.90;;;;;;4975298;28;20280;-83
2021/03/29 09:30:16;;;;;;;4.85;3.20;;;13.90;99.90;;;;;;4972600;28;20617;-86
2021/03/29 09:32:44;;;;;;;9.50;4.95;;;14.00;99.90;;;;;;4961933;28;20192;-85
2021/03/29 09:35:12;;;;;;;5.55;3.28;;;14.10;99.90;;;;;;4973138;28;20195;-84
2021/03/29 09:37:48;;;;;;;9.88;5.10;;;14.30;99.90;;;;;;4963821;28;20226;-85
2021/03/29 09:40:18;;;;;;;6.05;3.22;;;14.40;99.90;;;;;;4989940;28;20192;-84
2021/03/29 09:42:47;;;;;;;6.03;3.67;;;14.40;99.90;;;;;;4994422;28;20634;-84
2021/03/29 09:45:15;;;;;;;7.60;3.72;;;14.60;99.90;;;;;;4970625;28;20234;-85
2021/03/29 09:47:42;;;;;;;4.85;2.80;;;14.60;99.90;;;;;;4957414;28;20204;-84
2021/03/29 09:50:10;;;;;;;12.65;4.05;;;14.80;99.90;;;;;;4958325;28;20612;-83
2021/03/29 09:52:40;;;;;;;6.00;3.22;;;14.90;99.90;;;;;;4974964;28;20186;-84
2021/03/29 09:55:08;;;;;;;6.40;3.83;;;14.90;99.90;;;;;;4969406;28;20191;-84
2021/03/29 09:57:41;;;;;;;9.60;2.83;;;15.10;99.90;;;;;;4957910;28;20723;-84
2021/03/29 10:00:17;;;;;;;8.55;3.50;;;15.10;99.90;;;;;;4976159;28;20185;-83
2021/03/29 10:02:46;;;;;;;7.70;3.08;;;15.10;99.90;;;;;;4978941;28;20224;-85
2021/03/29 10:05:14;;;;;;;6.68;3.05;;;15.10;99.90;;;;;;4974941;28;20248;-84
2021/03/29 10:07:51;;;;;;;6.22;2.88;;;15.20;99.90;;;;;;4975890;28;20201;-84
2021/03/29 10:10:25;;;;;;;7.43;3.10;;;15.30;99.90;;;;;;4972712;28;20691;-83
2021/03/29 10:13:05;;;;;;;12.57;3.08;;;15.40;99.90;;;;;;4974419;28;20205;-84
2021/03/29 10:15:33;;;;;;;7.40;3.05;;;15.60;99.90;;;;;;4973944;28;20194;-82
2021/03/29 10:18:10;;;;;;;11.77;4.20;;;15.70;99.90;;;;;;4954920;28;20194;-82
2021/03/29 10:20:38;;;;;;;7.47;2.50;;;15.80;99.90;;;;;;4969729;28;20190;-82
2021/03/29 10:23:23;;;;;;;6.32;2.53;;;15.90;99.90;;;;;;4971258;28;20276;-82
2021/03/29 10:26:19;;;;;;;6.00;3.20;;;16.00;99.90;;;;;;4974019;28;20197;-81
2021/03/29 10:28:55;;;;;;;5.95;2.55;;;16.10;99.90;;;;;;4971863;28;20233;-82
2021/03/29 10:31:21;;;;;;;9.48;2.63;;;16.30;99.90;;;;;;4955103;28;20208;-81
2021/03/29 10:33:48;;;;;;;11.27;2.72;;;16.40;99.90;;;;;;4967792;28;20186;-82
2021/03/29 10:36:16;;;;;;;12.23;3.78;;;16.50;99.90;;;;;;4955872;28;20551;-82
2021/03/29 10:38:43;;;;;;;4.15;1.90;;;16.50;99.90;;;;;;4971275;28;20244;-83
2021/03/29 10:41:10;;;;;;;8.15;2.53;;;16.60;99.90;;;;;;4978376;28;20191;-81
2021/03/29 10:43:36;;;;;;;8.45;2.95;;;16.70;99.90;;;;;;4963370;28;20548;-82
2021/03/29 10:46:03;;;;;;;10.30;5.20;;;16.80;99.90;;;;;;4973242;28;20197;-82
2021/03/29 10:48:30;;;;;;;6.93;3.22;;;16.90;99.90;;;;;;4964483;28;20187;-83
2021/03/29 10:50:56;;;;;;;7.75;3.72;;;17.00;99.90;;;;;;4967530;28;20187;-82
2021/03/29 10:53:23;;;;;;;4.28;2.55;;;17.10;99.90;;;;;;4966539;28;20559;-81
2021/03/29 10:55:49;;;;;;;8.68;2.90;;;17.20;99.90;;;;;;4973872;28;20211;-83
2021/03/29 10:58:16;;;;;;;6.32;2.38;;;17.40;99.90;;;;;;4964692;28;20183;-81
2021/03/29 11:00:42;;;;;;;4.22;2.30;;;17.50;99.90;;;;;;4973616;28;20237;-82
2021/03/29 11:03:09;;;;;;;8.60;2.92;;;17.60;99.90;;;;;;4973947;28;20678;-81
2021/03/29 11:05:35;;;;;;;4.57;2.83;;;17.60;99.90;;;;;;4969210;28;20184;-81
2021/03/29 11:08:02;;;;;;;7.40;3.05;;;17.60;99.90;;;;;;4954865;29;20241;-81
2021/03/29 11:10:29;;;;;;;4.90;2.05;;;17.60;99.90;;;;;;4956249;28;20192;-82
2021/03/29 11:12:55;;;;;;;4.00;2.40;;;17.70;99.90;;;;;;4973876;28;20199;-81
2021/03/29 11:15:21;;;;;;;4.72;2.13;;;17.70;99.90;;;;;;4964332;28;20222;-82
2021/03/29 11:17:48;;;;;;;7.50;2.20;;;17.90;99.90;;;;;;4973908;28;20590;-81
2021/03/29 11:20:15;;;;;;;5.18;2.65;;;18.00;99.90;;;;;;4965688;28;20605;-81
2021/03/29 11:22:43;;;;;;;5.30;2.67;;;18.00;99.90;;;;;;4972097;28;20223;-81
2021/03/29 11:25:10;;;;;;;8.68;2.72;;;18.00;99.90;;;;;;4961354;28;20743;-81
2021/03/29 11:27:37;;;;;;;4.97;2.90;;;18.10;99.90;;;;;;4974038;28;20190;-81
2021/03/29 11:30:04;;;;;;;5.00;2.17;;;18.30;99.90;;;;;;4973873;28;20278;-82
2021/03/29 11:32:30;;;;;;;6.43;3.30;;;18.40;99.90;;;;;;4977886;28;20286;-82
2021/03/29 11:34:56;;;;;;;5.07;2.65;;;18.50;99.90;;;;;;4977884;28;20218;-81
2021/03/29 11:37:25;;;;;;;6.85;3.20;;;18.70;99.90;;;;;;4976712;28;20195;-82
2021/03/29 11:39:51;;;;;;;5.60;2.70;;;18.80;99.90;;;;;;4977485;28;20198;-82
2021/03/29 11:42:17;;;;;;;5.20;2.30;;;18.90;99.90;;;;;;4978126;28;20234;-82
2021/03/29 11:44:43;;;;;;;6.13;2.88;;;19.20;99.90;;;;;;4978254;28;20815;-83
2021/03/29 11:47:09;;;;;;;5.20;2.70;;;19.70;99.90;;;;;;4980243;28;20594;-82
2021/03/29 11:49:36;;;;;;;4.82;2.20;;;20.20;99.90;;;;;;4983850;28;20635;-82
2021/03/29 11:52:02;;;;;;;4.57;2.28;;;20.60;99.90;;;;;;4985708;28;20198;-81
2021/03/29 11:54:29;;;;;;;3.40;2.03;;;21.10;99.90;;;;;;4983144;28;20193;-82
2021/03/29 11:56:56;;;;;;;7.05;3.25;;;21.10;99.90;;;;;;4978431;28;20218;-82
2021/03/29 11:59:25;;;;;;;5.93;2.42;;;21.50;99.90;;;;;;4977127;28;20294;-84
2021/03/29 12:01:56;;;;;;;5.93;3.17;;;21.70;99.90;;;;;;4976277;28;20303;-83
2021/03/29 12:04:26;;;;;;;6.60;2.95;;;21.80;99.90;;;;;;4979033;28;20183;-84
2021/03/29 12:06:54;;;;;;;8.85;2.80;;;21.90;99.90;;;;;;4966319;28;20183;-82
2021/03/29 12:09:27;;;;;;;8.13;2.30;;;22.00;98.80;;;;;;4971150;28;20191;-82
2021/03/29 12:12:04;;;;;;;6.65;2.60;;;21.70;98.60;;;;;;4979207;28;20216;-82
2021/03/29 12:14:31;;;;;;;4.75;2.13;;;22.10;98.70;;;;;;4973178;28;20191;-84
2021/03/29 12:16:58;;;;;;;4.68;2.45;;;22.30;98.20;;;;;;4964119;28;20183;-82
2021/03/29 12:19:24;;;;;;;10.63;2.58;;;22.60;96.90;;;;;;4960571;28;20669;-82
2021/03/29 12:21:56;;;;;;;5.65;1.98;;;22.80;96.20;;;;;;4974851;28;20221;-82
2021/03/29 12:24:25;;;;;;;4.55;2.70;;;22.80;96.60;;;;;;4974163;28;20650;-82
2021/03/29 12:26:51;;;;;;;5.20;2.60;;;22.90;94.70;;;;;;4973359;28;20555;-83
2021/03/29 12:29:20;;;;;;;4.50;2.17;;;23.00;94.80;;;;;;4963303;28;20184;-84
2021/03/29 12:31:47;;;;;;;6.38;2.55;;;23.00;92.40;;;;;;4958334;28;20228;-84
2021/03/29 12:34:15;;;;;;;8.65;2.88;;;22.70;92.30;;;;;;4972525;28;20535;-82
2021/03/29 12:36:43;;;;;;;7.07;3.00;;;23.40;93.90;;;;;;4974215;28;20196;-83
2021/03/29 12:39:14;;;;;;;5.47;2.30;;;23.60;92.90;;;;;;4968680;28;20198;-82
2021/03/29 12:41:43;;;;;;;7.82;2.97;;;23.60;92.10;;;;;;4978127;28;20663;-82
2021/03/29 12:44:14;;;;;;;5.78;2.80;;;23.50;92.20;;;;;;4972601;28;20276;-83
2021/03/29 12:46:43;;;;;;;7.18;2.80;;;23.90;91.80;;;;;;4971453;28;20199;-82
2021/03/29 12:49:13;;;;;;;5.13;2.63;;;23.70;91.30;;;;;;4976400;28;20286;-81
2021/03/29 12:51:44;;;;;;;6.75;2.67;;;23.30;90.20;;;;;;4968065;28;20188;-81
2021/03/29 12:54:14;;;;;;;6.60;2.75;;;23.20;89.90;;;;;;4976342;28;20242;-83